sensor_id;sensor_type;location;lat;lon;timestamp;P1;durP1;ratioP1;P2;durP2;ratioP2
27428;SDS011;14881;48.092;11.574;2022-10-26T00:01:26;9.57;;;3.20;;
27428;SDS011;14881;48.092;11.574;2022-10-26T00:03:56;10.63;;;3.38;;
27428;SDS011;14881;48.092;11.574;2022-10-26T00:06:24;4.00;;;3.40;;
27428;SDS011;14881;48.092;11.574;2022-10-26T00:08:54;8.25;;;3.80;;
27428;SDS011;14881;48.092;11.574;2022-10-26T00:11:22;5.25;;;3.33;;
27428;SDS011;14881;48.092;11.574;2022-10-26T00:13:51;5.05;;;3.50;;
27428;SDS011;14881;48.092;11.574;2022-10-26T00:16:20;5.30;;;3.30;;
27428;SDS011;14881;48.092;11.574;2022-10-26T00:18:49;5.68;;;3.40;;
27428;SDS011;14881;48.092;11.574;2022-10-26T00:21:17;5.15;;;3.28;;
27428;SDS011;14881;48.092;11.574;2022-10-26T00:23:45;8.60;;;3.67;;
27428;SDS011;14881;48.092;11.574;2022-10-26T00:26:13;3.72;;;3.00;;
27428;SDS011;14881;48.092;11.574;2022-10-26T00:28:41;7.25;;;3.20;;
27428;SDS011;14881;48.092;11.574;2022-10-26T00:31:11;8.85;;;3.42;;
27428;SDS011;14881;48.092;11.574;2022-10-26T00:33:40;5.28;;;3.33;;
27428;SDS011;14881;48.092;11.574;2022-10-26T00:36:07;3.40;;;2.90;;
27428;SDS011;14881;48.092;11.574;2022-10-26T00:38:36;5.82;;;2.97;;
27428;SDS011;14881;48.092;11.574;2022-10-26T00:41:06;4.10;;;3.50;;
27428;SDS011;14881;48.092;11.574;2022-10-26T00:43:37;11.10;;;3.30;;
27428;SDS011;14881;48.092;11.574;2022-10-26T00:46:07;6.43;;;3.45;;
27428;SDS011;14881;48.092;11.574;2022-10-26T00:48:41;8.68;;;3.63;;
27428;SDS011;14881;48.092;11.574;2022-10-26T00:51:13;10.85;;;3.47;;
27428;SDS011;14881;48.092;11.574;2022-10-26T00:53:46;8.18;;;3.78;;
27428;SDS011;14881;48.092;11.574;2022-10-26T00:56:14;4.25;;;3.20;;
27428;SDS011;14881;48.092;11.574;2022-10-26T00:58:43;3.92;;;3.22;;
27428;SDS011;14881;48.092;11.574;2022-10-26T01:01:13;8.70;;;3.60;;
27428;SDS011;14881;48.092;11.574;2022-10-26T01:03:41;4.15;;;2.85;;
27428;SDS011;14881;48.092;11.574;2022-10-26T01:06:09;8.38;;;3.40;;
27428;SDS011;14881;48.092;11.574;2022-10-26T01:08:38;5.82;;;3.00;;
27428;SDS011;14881;48.092;11.574;2022-10-26T01:11:13;10.60;;;3.47;;
27428;SDS011;14881;48.092;11.574;2022-10-26T01:13:41;4.60;;;3.28;;
27428;SDS011;14881;48.092;11.574;2022-10-26T01:16:23;4.47;;;3.25;;
27428;SDS011;14881;48.092;11.574;2022-10-26T01:19:13;5.93;;;3.00;;
27428;SDS011;14881;48.092;11.574;2022-10-26T01:22:02;6.18;;;3.00;;
27428;SDS011;14881;48.092;11.574;2022-10-26T01:24:40;7.20;;;3.33;;
27428;SDS011;14881;48.092;11.574;2022-10-26T01:27:28;8.93;;;3.17;;
27428;SDS011;14881;48.092;11.574;2022-10-26T01:30:20;8.48;;;3.40;;
27428;SDS011;14881;48.092;11.574;2022-10-26T01:33:08;8.57;;;2.95;;
27428;SDS011;14881;48.092;11.574;2022-10-26T01:35:45;4.15;;;3.22;;
27428;SDS011;14881;48.092;11.574;2022-10-26T01:38:22;6.20;;;3.95;;
27428;SDS011;14881;48.092;11.574;2022-10-26T01:40:55;6.40;;;3.78;;
27428;SDS011;14881;48.092;11.574;2022-10-26T01:43:30;5.15;;;3.58;;
27428;SDS011;14881;48.092;11.574;2022-10-26T01:46:03;5.93;;;3.33;;
27428;SDS011;14881;48.092;11.574;2022-10-26T01:48:34;12.48;;;3.78;;
27428;SDS011;14881;48.092;11.574;2022-10-26T01:51:03;6.15;;;3.92;;
27428;SDS011;14881;48.092;11.574;2022-10-26T01:53:34;7.22;;;2.90;;
27428;SDS011;14881;48.092;11.574;2022-10-26T01:56:02;6.35;;;3.08;;
27428;SDS011;14881;48.092;11.574;2022-10-26T01:58:39;6.47;;;2.92;;
27428;SDS011;14881;48.092;11.574;2022-10-26T02:01:32;10.55;;;4.03;;
27428;SDS011;14881;48.092;11.574;2022-10-26T02:04:11;7.13;;;4.00;;
27428;SDS011;14881;48.092;11.574;2022-10-26T02:06:53;6.28;;;3.42;;
27428;SDS011;14881;48.092;11.574;2022-10-26T02:09:33;4.07;;;3.45;;
27428;SDS011;14881;48.092;11.574;2022-10-26T02:12:11;5.78;;;3.55;;
27428;SDS011;14881;48.092;11.574;2022-10-26T02:14:46;6.43;;;3.58;;
27428;SDS011;14881;48.092;11.574;2022-10-26T02:17:20;6.78;;;3.40;;
27428;SDS011;14881;48.092;11.574;2022-10-26T02:19:55;6.20;;;3.90;;
27428;SDS011;14881;48.092;11.574;2022-10-26T02:22:27;5.65;;;4.00;;
27428;SDS011;14881;48.092;11.574;2022-10-26T02:24:58;10.07;;;4.00;;
27428;SDS011;14881;48.092;11.574;2022-10-26T02:27:31;8.13;;;4.43;;
27428;SDS011;14881;48.092;11.574;2022-10-26T02:30:04;8.30;;;4.93;;
27428;SDS011;14881;48.092;11.574;2022-10-26T02:32:35;8.15;;;3.80;;
27428;SDS011;14881;48.092;11.574;2022-10-26T02:35:07;5.10;;;3.33;;
27428;SDS011;14881;48.092;11.574;2022-10-26T02:37:36;6.38;;;4.60;;
27428;SDS011;14881;48.092;11.574;2022-10-26T02:40:07;10.82;;;5.63;;
27428;SDS011;14881;48.092;11.574;2022-10-26T02:42:39;9.50;;;4.25;;
27428;SDS011;14881;48.092;11.574;2022-10-26T02:45:12;6.03;;;3.80;;
27428;SDS011;14881;48.092;11.574;2022-10-26T02:47:45;6.78;;;3.80;;
27428;SDS011;14881;48.092;11.574;2022-10-26T02:50:13;4.88;;;3.45;;
27428;SDS011;14881;48.092;11.574;2022-10-26T02:52:43;5.63;;;3.20;;
27428;SDS011;14881;48.092;11.574;2022-10-26T02:55:18;6.13;;;3.85;;
27428;SDS011;14881;48.092;11.574;2022-10-26T02:57:49;8.82;;;4.18;;
27428;SDS011;14881;48.092;11.574;2022-10-26T03:00:20;10.82;;;4.10;;
27428;SDS011;14881;48.092;11.574;2022-10-26T03:02:51;8.35;;;3.92;;
27428;SDS011;14881;48.092;11.574;2022-10-26T03:05:22;6.78;;;3.30;;
27428;SDS011;14881;48.092;11.574;2022-10-26T03:07:52;6.90;;;2.65;;
27428;SDS011;14881;48.092;11.574;2022-10-26T03:10:21;5.57;;;2.83;;
27428;SDS011;14881;48.092;11.574;2022-10-26T03:12:49;7.03;;;3.40;;
27428;SDS011;14881;48.092;11.574;2022-10-26T03:15:17;4.80;;;3.20;;
27428;SDS011;14881;48.092;11.574;2022-10-26T03:17:45;4.65;;;3.30;;
27428;SDS011;14881;48.092;11.574;2022-10-26T03:20:15;6.85;;;2.90;;
27428;SDS011;14881;48.092;11.574;2022-10-26T03:22:42;8.02;;;3.50;;
27428;SDS011;14881;48.092;11.574;2022-10-26T03:25:13;4.18;;;2.47;;
27428;SDS011;14881;48.092;11.574;2022-10-26T03:27:41;7.13;;;2.55;;
27428;SDS011;14881;48.092;11.574;2022-10-26T03:30:09;6.85;;;2.40;;
27428;SDS011;14881;48.092;11.574;2022-10-26T03:32:37;6.25;;;2.88;;
27428;SDS011;14881;48.092;11.574;2022-10-26T03:35:07;3.45;;;2.40;;
27428;SDS011;14881;48.092;11.574;2022-10-26T03:37:36;3.95;;;2.67;;
27428;SDS011;14881;48.092;11.574;2022-10-26T03:40:04;4.05;;;2.67;;
27428;SDS011;14881;48.092;11.574;2022-10-26T03:42:34;4.63;;;2.95;;
27428;SDS011;14881;48.092;11.574;2022-10-26T03:45:02;3.78;;;2.33;;
27428;SDS011;14881;48.092;11.574;2022-10-26T03:47:31;3.22;;;2.88;;
27428;SDS011;14881;48.092;11.574;2022-10-26T03:49:59;5.90;;;2.80;;
27428;SDS011;14881;48.092;11.574;2022-10-26T03:52:27;2.33;;;2.13;;
27428;SDS011;14881;48.092;11.574;2022-10-26T03:54:57;9.48;;;2.53;;
27428;SDS011;14881;48.092;11.574;2022-10-26T03:57:25;2.75;;;2.30;;
27428;SDS011;14881;48.092;11.574;2022-10-26T03:59:53;4.75;;;2.17;;
27428;SDS011;14881;48.092;11.574;2022-10-26T04:02:23;4.18;;;2.47;;
27428;SDS011;14881;48.092;11.574;2022-10-26T04:04:51;3.85;;;2.38;;
27428;SDS011;14881;48.092;11.574;2022-10-26T04:07:18;4.85;;;2.55;;
27428;SDS011;14881;48.092;11.574;2022-10-26T04:09:46;5.00;;;2.47;;
27428;SDS011;14881;48.092;11.574;2022-10-26T04:12:15;4.55;;;2.63;;
27428;SDS011;14881;48.092;11.574;2022-10-26T04:14:43;3.22;;;2.92;;
27428;SDS011;14881;48.092;11.574;2022-10-26T04:17:10;3.38;;;2.42;;
27428;SDS011;14881;48.092;11.574;2022-10-26T04:19:38;4.13;;;2.40;;
27428;SDS011;14881;48.092;11.574;2022-10-26T04:22:06;7.28;;;2.80;;
27428;SDS011;14881;48.092;11.574;2022-10-26T04:24:33;2.53;;;2.33;;
27428;SDS011;14881;48.092;11.574;2022-10-26T04:27:01;7.88;;;2.78;;
27428;SDS011;14881;48.092;11.574;2022-10-26T04:29:30;7.63;;;2.60;;
27428;SDS011;14881;48.092;11.574;2022-10-26T04:31:57;6.07;;;2.30;;
27428;SDS011;14881;48.092;11.574;2022-10-26T04:34:26;2.53;;;2.33;;
27428;SDS011;14881;48.092;11.574;2022-10-26T04:36:54;4.43;;;2.28;;
27428;SDS011;14881;48.092;11.574;2022-10-26T04:39:22;3.00;;;2.47;;
27428;SDS011;14881;48.092;11.574;2022-10-26T04:41:50;6.22;;;2.30;;
27428;SDS011;14881;48.092;11.574;2022-10-26T04:44:20;4.70;;;2.35;;
27428;SDS011;14881;48.092;11.574;2022-10-26T04:46:49;4.13;;;2.42;;
27428;SDS011;14881;48.092;11.574;2022-10-26T04:49:16;2.75;;;2.50;;
27428;SDS011;14881;48.092;11.574;2022-10-26T04:51:44;3.97;;;2.25;;
27428;SDS011;14881;48.092;11.574;2022-10-26T04:54:12;14.18;;;2.55;;
27428;SDS011;14881;48.092;11.574;2022-10-26T04:56:40;4.25;;;2.30;;
27428;SDS011;14881;48.092;11.574;2022-10-26T04:59:07;5.60;;;2.58;;
27428;SDS011;14881;48.092;11.574;2022-10-26T05:01:35;2.40;;;2.10;;
27428;SDS011;14881;48.092;11.574;2022-10-26T05:04:04;5.82;;;2.20;;
27428;SDS011;14881;48.092;11.574;2022-10-26T05:06:32;2.30;;;1.83;;
27428;SDS011;14881;48.092;11.574;2022-10-26T05:09:00;7.13;;;2.22;;
27428;SDS011;14881;48.092;11.574;2022-10-26T05:11:28;2.15;;;1.60;;
27428;SDS011;14881;48.092;11.574;2022-10-26T05:13:56;6.57;;;2.03;;
27428;SDS011;14881;48.092;11.574;2022-10-26T05:16:23;5.80;;;1.88;;
27428;SDS011;14881;48.092;11.574;2022-10-26T05:18:51;2.20;;;1.88;;
27428;SDS011;14881;48.092;11.574;2022-10-26T05:21:20;3.33;;;2.17;;
27428;SDS011;14881;48.092;11.574;2022-10-26T05:23:48;5.00;;;2.05;;
27428;SDS011;14881;48.092;11.574;2022-10-26T05:26:17;2.75;;;1.83;;
27428;SDS011;14881;48.092;11.574;2022-10-26T05:28:45;5.15;;;1.75;;
27428;SDS011;14881;48.092;11.574;2022-10-26T05:31:15;2.85;;;1.80;;
27428;SDS011;14881;48.092;11.574;2022-10-26T05:33:43;7.82;;;2.10;;
27428;SDS011;14881;48.092;11.574;2022-10-26T05:36:14;2.50;;;2.00;;
27428;SDS011;14881;48.092;11.574;2022-10-26T05:38:43;4.90;;;1.90;;
27428;SDS011;14881;48.092;11.574;2022-10-26T05:41:11;6.30;;;2.22;;
27428;SDS011;14881;48.092;11.574;2022-10-26T05:43:39;5.20;;;2.70;;
27428;SDS011;14881;48.092;11.574;2022-10-26T05:46:07;5.40;;;2.45;;
27428;SDS011;14881;48.092;11.574;2022-10-26T05:48:34;6.70;;;2.47;;
27428;SDS011;14881;48.092;11.574;2022-10-26T05:51:02;5.88;;;2.20;;
27428;SDS011;14881;48.092;11.574;2022-10-26T05:53:30;4.70;;;2.50;;
27428;SDS011;14881;48.092;11.574;2022-10-26T05:55:59;7.40;;;2.80;;
27428;SDS011;14881;48.092;11.574;2022-10-26T05:58:32;6.25;;;2.50;;
27428;SDS011;14881;48.092;11.574;2022-10-26T06:01:06;8.98;;;2.13;;
27428;SDS011;14881;48.092;11.574;2022-10-26T06:03:46;5.38;;;2.50;;
27428;SDS011;14881;48.092;11.574;2022-10-26T06:06:22;4.07;;;2.13;;
27428;SDS011;14881;48.092;11.574;2022-10-26T06:08:53;4.25;;;3.00;;
27428;SDS011;14881;48.092;11.574;2022-10-26T06:11:22;7.22;;;2.60;;
27428;SDS011;14881;48.092;11.574;2022-10-26T06:13:50;4.25;;;2.60;;
27428;SDS011;14881;48.092;11.574;2022-10-26T06:16:23;8.30;;;3.42;;
27428;SDS011;14881;48.092;11.574;2022-10-26T06:19:01;7.60;;;2.95;;
27428;SDS011;14881;48.092;11.574;2022-10-26T06:21:39;4.30;;;2.90;;
27428;SDS011;14881;48.092;11.574;2022-10-26T06:24:18;7.68;;;2.90;;
27428;SDS011;14881;48.092;11.574;2022-10-26T06:26:53;6.43;;;2.90;;
27428;SDS011;14881;48.092;11.574;2022-10-26T06:29:35;8.73;;;2.80;;
27428;SDS011;14881;48.092;11.574;2022-10-26T06:32:08;5.30;;;3.20;;
27428;SDS011;14881;48.092;11.574;2022-10-26T06:34:38;6.03;;;2.95;;
27428;SDS011;14881;48.092;11.574;2022-10-26T06:37:12;7.75;;;2.70;;
27428;SDS011;14881;48.092;11.574;2022-10-26T06:39:41;7.93;;;2.80;;
27428;SDS011;14881;48.092;11.574;2022-10-26T06:42:18;3.60;;;2.55;;
27428;SDS011;14881;48.092;11.574;2022-10-26T06:44:46;2.15;;;1.77;;
27428;SDS011;14881;48.092;11.574;2022-10-26T06:47:16;5.93;;;2.38;;
27428;SDS011;14881;48.092;11.574;2022-10-26T06:49:55;8.82;;;2.20;;
27428;SDS011;14881;48.092;11.574;2022-10-26T06:52:28;3.55;;;2.08;;
27428;SDS011;14881;48.092;11.574;2022-10-26T06:55:02;8.93;;;2.10;;
27428;SDS011;14881;48.092;11.574;2022-10-26T06:57:33;4.88;;;2.42;;
27428;SDS011;14881;48.092;11.574;2022-10-26T07:00:03;7.00;;;2.10;;
27428;SDS011;14881;48.092;11.574;2022-10-26T07:02:32;7.88;;;2.25;;
27428;SDS011;14881;48.092;11.574;2022-10-26T07:05:00;3.40;;;1.75;;
27428;SDS011;14881;48.092;11.574;2022-10-26T07:07:28;6.88;;;2.47;;
27428;SDS011;14881;48.092;11.574;2022-10-26T07:09:57;4.72;;;2.35;;
27428;SDS011;14881;48.092;11.574;2022-10-26T07:12:28;3.65;;;2.15;;
27428;SDS011;14881;48.092;11.574;2022-10-26T07:14:59;7.07;;;2.22;;
27428;SDS011;14881;48.092;11.574;2022-10-26T07:17:27;2.72;;;1.80;;
27428;SDS011;14881;48.092;11.574;2022-10-26T07:19:57;2.97;;;2.13;;
27428;SDS011;14881;48.092;11.574;2022-10-26T07:22:25;2.72;;;2.10;;
27428;SDS011;14881;48.092;11.574;2022-10-26T07:24:52;6.28;;;2.53;;
27428;SDS011;14881;48.092;11.574;2022-10-26T07:27:24;5.40;;;2.30;;
27428;SDS011;14881;48.092;11.574;2022-10-26T07:29:52;2.72;;;1.90;;
27428;SDS011;14881;48.092;11.574;2022-10-26T07:32:21;2.72;;;1.92;;
27428;SDS011;14881;48.092;11.574;2022-10-26T07:34:48;3.05;;;1.90;;
27428;SDS011;14881;48.092;11.574;2022-10-26T07:37:16;5.10;;;1.90;;
27428;SDS011;14881;48.092;11.574;2022-10-26T07:39:44;2.05;;;1.67;;
27428;SDS011;14881;48.092;11.574;2022-10-26T07:42:11;4.85;;;1.77;;
27428;SDS011;14881;48.092;11.574;2022-10-26T07:44:40;3.03;;;1.63;;
27428;SDS011;14881;48.092;11.574;2022-10-26T07:47:08;1.95;;;1.65;;
27428;SDS011;14881;48.092;11.574;2022-10-26T07:49:37;4.75;;;1.88;;
27428;SDS011;14881;48.092;11.574;2022-10-26T07:52:05;3.85;;;1.88;;
27428;SDS011;14881;48.092;11.574;2022-10-26T07:54:33;4.90;;;1.65;;
27428;SDS011;14881;48.092;11.574;2022-10-26T07:57:00;2.67;;;1.67;;
27428;SDS011;14881;48.092;11.574;2022-10-26T07:59:33;2.95;;;1.77;;
27428;SDS011;14881;48.092;11.574;2022-10-26T08:02:01;2.85;;;1.73;;
27428;SDS011;14881;48.092;11.574;2022-10-26T08:04:29;4.20;;;1.80;;
27428;SDS011;14881;48.092;11.574;2022-10-26T08:06:58;3.88;;;1.67;;
27428;SDS011;14881;48.092;11.574;2022-10-26T08:09:25;5.20;;;1.80;;
27428;SDS011;14881;48.092;11.574;2022-10-26T08:11:53;3.35;;;1.73;;
27428;SDS011;14881;48.092;11.574;2022-10-26T08:14:21;1.98;;;1.50;;
27428;SDS011;14881;48.092;11.574;2022-10-26T08:16:48;2.95;;;1.50;;
27428;SDS011;14881;48.092;11.574;2022-10-26T08:19:18;2.72;;;1.67;;
27428;SDS011;14881;48.092;11.574;2022-10-26T08:21:45;2.72;;;1.55;;
27428;SDS011;14881;48.092;11.574;2022-10-26T08:24:14;1.60;;;1.50;;
27428;SDS011;14881;48.092;11.574;2022-10-26T08:26:42;4.05;;;1.80;;
27428;SDS011;14881;48.092;11.574;2022-10-26T08:29:10;2.83;;;1.50;;
27428;SDS011;14881;48.092;11.574;2022-10-26T08:31:38;1.20;;;1.10;;
27428;SDS011;14881;48.092;11.574;2022-10-26T08:34:06;2.70;;;1.60;;
27428;SDS011;14881;48.092;11.574;2022-10-26T08:36:34;1.67;;;1.58;;
27428;SDS011;14881;48.092;11.574;2022-10-26T08:39:01;10.25;;;1.58;;
27428;SDS011;14881;48.092;11.574;2022-10-26T08:41:34;3.22;;;1.40;;
27428;SDS011;14881;48.092;11.574;2022-10-26T08:44:05;3.80;;;1.42;;
27428;SDS011;14881;48.092;11.574;2022-10-26T08:46:43;2.35;;;1.40;;
27428;SDS011;14881;48.092;11.574;2022-10-26T08:49:18;5.80;;;1.40;;
27428;SDS011;14881;48.092;11.574;2022-10-26T08:51:49;1.42;;;1.30;;
27428;SDS011;14881;48.092;11.574;2022-10-26T08:54:21;2.33;;;1.10;;
27428;SDS011;14881;48.092;11.574;2022-10-26T08:57:01;2.58;;;1.17;;
27428;SDS011;14881;48.092;11.574;2022-10-26T08:59:37;3.65;;;1.30;;
27428;SDS011;14881;48.092;11.574;2022-10-26T09:02:10;2.00;;;1.10;;
27428;SDS011;14881;48.092;11.574;2022-10-26T09:04:39;2.63;;;1.20;;
27428;SDS011;14881;48.092;11.574;2022-10-26T09:07:10;1.67;;;1.20;;
27428;SDS011;14881;48.092;11.574;2022-10-26T09:09:47;2.75;;;0.90;;
27428;SDS011;14881;48.092;11.574;2022-10-26T09:12:27;3.03;;;1.17;;
27428;SDS011;14881;48.092;11.574;2022-10-26T09:15:07;3.03;;;1.20;;
27428;SDS011;14881;48.092;11.574;2022-10-26T09:17:42;3.05;;;1.20;;
27428;SDS011;14881;48.092;11.574;2022-10-26T09:20:41;4.63;;;1.20;;
27428;SDS011;14881;48.092;11.574;2022-10-26T09:23:24;2.38;;;1.15;;
27428;SDS011;14881;48.092;11.574;2022-10-26T09:26:09;3.75;;;1.13;;
27428;SDS011;14881;48.092;11.574;2022-10-26T09:28:55;5.68;;;1.50;;
27428;SDS011;14881;48.092;11.574;2022-10-26T09:31:25;2.25;;;1.20;;
27428;SDS011;14881;48.092;11.574;2022-10-26T09:33:53;4.45;;;1.20;;
27428;SDS011;14881;48.092;11.574;2022-10-26T09:36:26;2.58;;;1.30;;
27428;SDS011;14881;48.092;11.574;2022-10-26T09:38:55;3.42;;;0.90;;
27428;SDS011;14881;48.092;11.574;2022-10-26T09:41:28;3.08;;;1.40;;
27428;SDS011;14881;48.092;11.574;2022-10-26T09:44:09;4.25;;;1.27;;
27428;SDS011;14881;48.092;11.574;2022-10-26T09:46:45;1.70;;;0.88;;
27428;SDS011;14881;48.092;11.574;2022-10-26T09:49:18;1.75;;;1.13;;
27428;SDS011;14881;48.092;11.574;2022-10-26T09:51:51;3.58;;;1.00;;
27428;SDS011;14881;48.092;11.574;2022-10-26T09:54:19;3.60;;;1.33;;
27428;SDS011;14881;48.092;11.574;2022-10-26T09:56:48;4.55;;;1.42;;
27428;SDS011;14881;48.092;11.574;2022-10-26T09:59:20;2.63;;;1.23;;
27428;SDS011;14881;48.092;11.574;2022-10-26T10:01:50;2.55;;;1.13;;
27428;SDS011;14881;48.092;11.574;2022-10-26T10:04:19;1.65;;;1.00;;
27428;SDS011;14881;48.092;11.574;2022-10-26T10:06:49;4.28;;;1.10;;
27428;SDS011;14881;48.092;11.574;2022-10-26T10:09:18;4.82;;;1.63;;
27428;SDS011;14881;48.092;11.574;2022-10-26T10:11:48;3.42;;;1.20;;
27428;SDS011;14881;48.092;11.574;2022-10-26T10:14:23;1.65;;;1.00;;
27428;SDS011;14881;48.092;11.574;2022-10-26T10:16:53;4.55;;;1.25;;
27428;SDS011;14881;48.092;11.574;2022-10-26T10:19:24;3.75;;;1.45;;
27428;SDS011;14881;48.092;11.574;2022-10-26T10:21:53;2.05;;;1.20;;
27428;SDS011;14881;48.092;11.574;2022-10-26T10:24:24;1.55;;;1.02;;
27428;SDS011;14881;48.092;11.574;2022-10-26T10:27:00;4.28;;;1.88;;
27428;SDS011;14881;48.092;11.574;2022-10-26T10:29:31;2.28;;;1.00;;
27428;SDS011;14881;48.092;11.574;2022-10-26T10:32:00;3.35;;;1.40;;
27428;SDS011;14881;48.092;11.574;2022-10-26T10:34:29;2.80;;;1.35;;
27428;SDS011;14881;48.092;11.574;2022-10-26T10:36:58;3.97;;;1.35;;
27428;SDS011;14881;48.092;11.574;2022-10-26T10:39:32;3.58;;;1.35;;
27428;SDS011;14881;48.092;11.574;2022-10-26T10:42:04;20.92;;;10.90;;
27428;SDS011;14881;48.092;11.574;2022-10-26T10:44:41;5.97;;;2.20;;
27428;SDS011;14881;48.092;11.574;2022-10-26T10:47:17;3.97;;;1.73;;
27428;SDS011;14881;48.092;11.574;2022-10-26T10:49:54;11.05;;;5.70;;
27428;SDS011;14881;48.092;11.574;2022-10-26T10:52:25;7.15;;;2.30;;
27428;SDS011;14881;48.092;11.574;2022-10-26T11:00:36;6.18;;;1.40;;
27428;SDS011;14881;48.092;11.574;2022-10-26T11:03:09;4.72;;;1.05;;
27428;SDS011;14881;48.092;11.574;2022-10-26T11:05:54;5.07;;;1.40;;
27428;SDS011;14881;48.092;11.574;2022-10-26T11:08:28;4.80;;;1.83;;
27428;SDS011;14881;48.092;11.574;2022-10-26T11:11:02;6.25;;;1.70;;
27428;SDS011;14881;48.092;11.574;2022-10-26T11:13:34;5.47;;;1.40;;
27428;SDS011;14881;48.092;11.574;2022-10-26T11:16:10;4.90;;;1.52;;
27428;SDS011;14881;48.092;11.574;2022-10-26T11:18:42;5.95;;;1.50;;
27428;SDS011;14881;48.092;11.574;2022-10-26T11:21:18;5.03;;;1.95;;
27428;SDS011;14881;48.092;11.574;2022-10-26T11:23:53;4.90;;;1.50;;
27428;SDS011;14881;48.092;11.574;2022-10-26T11:26:32;4.93;;;1.52;;
27428;SDS011;14881;48.092;11.574;2022-10-26T11:29:16;4.78;;;1.73;;
27428;SDS011;14881;48.092;11.574;2022-10-26T11:31:52;6.13;;;2.10;;
27428;SDS011;14881;48.092;11.574;2022-10-26T11:34:25;4.97;;;2.30;;
27428;SDS011;14881;48.092;11.574;2022-10-26T11:36:58;6.70;;;2.00;;
27428;SDS011;14881;48.092;11.574;2022-10-26T11:39:33;7.88;;;2.10;;
27428;SDS011;14881;48.092;11.574;2022-10-26T11:42:10;8.50;;;1.93;;
27428;SDS011;14881;48.092;11.574;2022-10-26T11:44:47;4.25;;;1.85;;
27428;SDS011;14881;48.092;11.574;2022-10-26T11:47:22;6.80;;;2.28;;
27428;SDS011;14881;48.092;11.574;2022-10-26T11:50:03;6.40;;;1.95;;
27428;SDS011;14881;48.092;11.574;2022-10-26T11:52:43;6.60;;;2.05;;
27428;SDS011;14881;48.092;11.574;2022-10-26T11:55:15;8.05;;;2.20;;
27428;SDS011;14881;48.092;11.574;2022-10-26T11:57:46;5.40;;;1.80;;
27428;SDS011;14881;48.092;11.574;2022-10-26T12:00:17;6.90;;;2.08;;
27428;SDS011;14881;48.092;11.574;2022-10-26T12:02:48;5.35;;;1.80;;
27428;SDS011;14881;48.092;11.574;2022-10-26T12:05:21;6.05;;;2.15;;
27428;SDS011;14881;48.092;11.574;2022-10-26T12:08:00;5.90;;;2.22;;
27428;SDS011;14881;48.092;11.574;2022-10-26T12:10:32;11.50;;;2.17;;
27428;SDS011;14881;48.092;11.574;2022-10-26T12:13:07;9.48;;;2.58;;
27428;SDS011;14881;48.092;11.574;2022-10-26T12:15:45;7.38;;;2.13;;
27428;SDS011;14881;48.092;11.574;2022-10-26T12:18:32;11.20;;;2.80;;
27428;SDS011;14881;48.092;11.574;2022-10-26T12:21:20;11.05;;;2.80;;
27428;SDS011;14881;48.092;11.574;2022-10-26T12:23:52;6.13;;;2.22;;
27428;SDS011;14881;48.092;11.574;2022-10-26T12:29:28;8.07;;;2.53;;
27428;SDS011;14881;48.092;11.574;2022-10-26T12:32:03;11.00;;;2.70;;
27428;SDS011;14881;48.092;11.574;2022-10-26T12:35:09;9.63;;;2.70;;
27428;SDS011;14881;48.092;11.574;2022-10-26T12:41:19;13.10;;;3.08;;
27428;SDS011;14881;48.092;11.574;2022-10-26T12:43:48;9.27;;;2.13;;
27428;SDS011;14881;48.092;11.574;2022-10-26T12:52:20;8.10;;;2.90;;
27428;SDS011;14881;48.092;11.574;2022-10-26T12:55:04;12.27;;;2.88;;
27428;SDS011;14881;48.092;11.574;2022-10-26T12:57:56;11.68;;;3.25;;
27428;SDS011;14881;48.092;11.574;2022-10-26T13:00:34;9.77;;;2.72;;
27428;SDS011;14881;48.092;11.574;2022-10-26T13:03:11;5.40;;;2.45;;
27428;SDS011;14881;48.092;11.574;2022-10-26T13:06:00;5.65;;;2.28;;
27428;SDS011;14881;48.092;11.574;2022-10-26T13:08:41;7.63;;;2.58;;
27428;SDS011;14881;48.092;11.574;2022-10-26T13:11:12;6.32;;;2.60;;
27428;SDS011;14881;48.092;11.574;2022-10-26T13:13:50;14.27;;;2.90;;
27428;SDS011;14881;48.092;11.574;2022-10-26T13:18:49;9.25;;;2.78;;
27428;SDS011;14881;48.092;11.574;2022-10-26T13:21:17;5.75;;;2.72;;
27428;SDS011;14881;48.092;11.574;2022-10-26T13:23:55;8.70;;;2.83;;
27428;SDS011;14881;48.092;11.574;2022-10-26T13:26:27;9.52;;;2.70;;
27428;SDS011;14881;48.092;11.574;2022-10-26T13:28:57;10.77;;;2.67;;
27428;SDS011;14881;48.092;11.574;2022-10-26T13:34:25;7.00;;;2.30;;
27428;SDS011;14881;48.092;11.574;2022-10-26T13:36:58;8.48;;;2.67;;
27428;SDS011;14881;48.092;11.574;2022-10-26T13:39:34;10.43;;;2.70;;
27428;SDS011;14881;48.092;11.574;2022-10-26T13:42:04;10.80;;;2.92;;
27428;SDS011;14881;48.092;11.574;2022-10-26T13:44:35;9.27;;;2.50;;
27428;SDS011;14881;48.092;11.574;2022-10-26T13:47:08;10.77;;;3.30;;
27428;SDS011;14881;48.092;11.574;2022-10-26T13:49:39;8.55;;;2.85;;
27428;SDS011;14881;48.092;11.574;2022-10-26T13:52:11;11.07;;;2.90;;
27428;SDS011;14881;48.092;11.574;2022-10-26T13:54:44;9.57;;;2.80;;
27428;SDS011;14881;48.092;11.574;2022-10-26T13:57:18;7.45;;;2.63;;
27428;SDS011;14881;48.092;11.574;2022-10-26T13:59:49;7.45;;;2.40;;
27428;SDS011;14881;48.092;11.574;2022-10-26T14:02:20;5.50;;;2.67;;
27428;SDS011;14881;48.092;11.574;2022-10-26T14:04:53;11.57;;;2.72;;
27428;SDS011;14881;48.092;11.574;2022-10-26T14:07:30;10.07;;;2.75;;
27428;SDS011;14881;48.092;11.574;2022-10-26T14:10:04;6.00;;;2.63;;
27428;SDS011;14881;48.092;11.574;2022-10-26T14:12:32;9.77;;;2.42;;
27428;SDS011;14881;48.092;11.574;2022-10-26T14:15:02;7.10;;;2.88;;
27428;SDS011;14881;48.092;11.574;2022-10-26T14:17:33;7.47;;;2.40;;
27428;SDS011;14881;48.092;11.574;2022-10-26T14:20:02;10.10;;;2.72;;
27428;SDS011;14881;48.092;11.574;2022-10-26T14:22:31;7.05;;;2.42;;
27428;SDS011;14881;48.092;11.574;2022-10-26T14:24:59;10.38;;;2.78;;
27428;SDS011;14881;48.092;11.574;2022-10-26T14:27:31;11.75;;;2.55;;
27428;SDS011;14881;48.092;11.574;2022-10-26T14:30:19;11.40;;;2.67;;
27428;SDS011;14881;48.092;11.574;2022-10-26T14:32:49;8.45;;;2.53;;
27428;SDS011;14881;48.092;11.574;2022-10-26T14:35:17;7.75;;;2.45;;
27428;SDS011;14881;48.092;11.574;2022-10-26T14:37:48;8.27;;;2.42;;
27428;SDS011;14881;48.092;11.574;2022-10-26T14:40:19;12.90;;;3.35;;
27428;SDS011;14881;48.092;11.574;2022-10-26T14:42:54;11.40;;;2.63;;
27428;SDS011;14881;48.092;11.574;2022-10-26T14:45:26;10.88;;;2.88;;
27428;SDS011;14881;48.092;11.574;2022-10-26T14:48:20;9.20;;;2.85;;
27428;SDS011;14881;48.092;11.574;2022-10-26T14:51:01;7.65;;;2.47;;
27428;SDS011;14881;48.092;11.574;2022-10-26T14:53:34;12.52;;;2.78;;
27428;SDS011;14881;48.092;11.574;2022-10-26T14:56:04;10.57;;;2.95;;
27428;SDS011;14881;48.092;11.574;2022-10-26T14:58:44;9.40;;;2.60;;
27428;SDS011;14881;48.092;11.574;2022-10-26T15:01:23;8.00;;;3.10;;
27428;SDS011;14881;48.092;11.574;2022-10-26T15:03:56;9.57;;;2.97;;
27428;SDS011;14881;48.092;11.574;2022-10-26T15:06:28;13.73;;;3.08;;
27428;SDS011;14881;48.092;11.574;2022-10-26T15:09:02;7.28;;;3.00;;
27428;SDS011;14881;48.092;11.574;2022-10-26T15:11:32;14.35;;;3.22;;
27428;SDS011;14881;48.092;11.574;2022-10-26T15:14:02;8.70;;;3.03;;
27428;SDS011;14881;48.092;11.574;2022-10-26T15:16:49;9.40;;;3.20;;
27428;SDS011;14881;48.092;11.574;2022-10-26T15:19:19;9.57;;;2.85;;
27428;SDS011;14881;48.092;11.574;2022-10-26T15:21:49;9.75;;;3.47;;
27428;SDS011;14881;48.092;11.574;2022-10-26T15:24:26;11.10;;;2.70;;
27428;SDS011;14881;48.092;11.574;2022-10-26T15:27:02;8.75;;;3.08;;